sensor_id;sensor_type;location;lat;lon;timestamp;pressure;altitude;pressure_sealevel;temperature;humidity
68871;BME280;55906;52.278;6.808;2023-02-11T00:00:42;103141.31;;;7.41;84.07
68871;BME280;55906;52.278;6.808;2023-02-11T00:03:08;103145.50;;;7.39;83.80
68871;BME280;55906;52.278;6.808;2023-02-11T00:05:35;103150.88;;;7.41;83.79
68871;BME280;55906;52.278;6.808;2023-02-11T00:08:02;103165.53;;;7.38;83.96
68871;BME280;55906;52.278;6.808;2023-02-11T00:10:28;103148.13;;;7.39;83.32
68871;BME280;55906;52.278;6.808;2023-02-11T00:12:56;103151.22;;;7.45;83.90
68871;BME280;55906;52.278;6.808;2023-02-11T00:15:24;103158.03;;;7.43;83.35
68871;BME280;55906;52.278;6.808;2023-02-11T00:17:50;103154.50;;;7.43;83.14
68871;BME280;55906;52.278;6.808;2023-02-11T00:20:17;103142.44;;;7.45;82.63
68871;BME280;55906;52.278;6.808;2023-02-11T00:22:44;103143.47;;;7.47;83.04
68871;BME280;55906;52.278;6.808;2023-02-11T00:25:10;103151.31;;;7.47;82.39
68871;BME280;55906;52.278;6.808;2023-02-11T00:27:37;103149.63;;;7.47;82.69
68871;BME280;55906;52.278;6.808;2023-02-11T00:30:06;103143.00;;;7.52;82.86
68871;BME280;55906;52.278;6.808;2023-02-11T00:32:33;103147.22;;;7.50;82.75
68871;BME280;55906;52.278;6.808;2023-02-11T00:35:00;103156.91;;;7.51;82.61
68871;BME280;55906;52.278;6.808;2023-02-11T00:37:26;103159.75;;;7.54;82.29
68871;BME280;55906;52.278;6.808;2023-02-11T00:39:53;103153.72;;;7.55;81.81
68871;BME280;55906;52.278;6.808;2023-02-11T00:42:20;103153.72;;;7.55;82.34
68871;BME280;55906;52.278;6.808;2023-02-11T00:44:46;103161.56;;;7.55;82.18
68871;BME280;55906;52.278;6.808;2023-02-11T00:47:14;103174.09;;;7.59;81.90
68871;BME280;55906;52.278;6.808;2023-02-11T00:49:41;103176.59;;;7.58;82.23
68871;BME280;55906;52.278;6.808;2023-02-11T00:52:08;103178.53;;;7.60;81.42
68871;BME280;55906;52.278;6.808;2023-02-11T00:54:34;103173.19;;;7.59;82.40
68871;BME280;55906;52.278;6.808;2023-02-11T00:57:01;103167.16;;;7.60;81.85
68871;BME280;55906;52.278;6.808;2023-02-11T00:59:27;103164.66;;;7.61;82.26
68871;BME280;55906;52.278;6.808;2023-02-11T01:01:54;103135.72;;;7.60;81.84
68871;BME280;55906;52.278;6.808;2023-02-11T01:04:22;103133.22;;;7.61;81.30
68871;BME280;55906;52.278;6.808;2023-02-11T01:06:49;103122.63;;;7.60;81.26
68871;BME280;55906;52.278;6.808;2023-02-11T01:09:15;103114.44;;;7.55;81.50
68871;BME280;55906;52.278;6.808;2023-02-11T01:11:42;103123.78;;;7.63;81.36
68871;BME280;55906;52.278;6.808;2023-02-11T01:14:09;103123.66;;;7.62;82.12
68871;BME280;55906;52.278;6.808;2023-02-11T01:16:36;103133.22;;;7.61;81.58
68871;BME280;55906;52.278;6.808;2023-02-11T01:19:02;103137.56;;;7.61;81.77
68871;BME280;55906;52.278;6.808;2023-02-11T01:21:30;103138.47;;;7.61;82.03
68871;BME280;55906;52.278;6.808;2023-02-11T01:23:57;103136.97;;;7.65;81.32
68871;BME280;55906;52.278;6.808;2023-02-11T01:26:24;103143.94;;;7.64;81.64
68871;BME280;55906;52.278;6.808;2023-02-11T01:28:50;103140.16;;;7.61;81.51
68871;BME280;55906;52.278;6.808;2023-02-11T01:31:17;103145.53;;;7.62;81.61
68871;BME280;55906;52.278;6.808;2023-02-11T01:33:44;103146.44;;;7.63;81.59
68871;BME280;55906;52.278;6.808;2023-02-11T01:36:11;103142.91;;;7.62;81.60
68871;BME280;55906;52.278;6.808;2023-02-11T01:38:39;103138.13;;;7.68;81.23
68871;BME280;55906;52.278;6.808;2023-02-11T01:41:08;103135.28;;;7.65;81.23
68871;BME280;55906;52.278;6.808;2023-02-11T01:43:36;103144.03;;;7.66;80.96
68871;BME280;55906;52.278;6.808;2023-02-11T01:46:18;103143.25;;;7.67;80.98
68871;BME280;55906;52.278;6.808;2023-02-11T01:48:48;103147.34;;;7.63;81.13
68871;BME280;55906;52.278;6.808;2023-02-11T01:51:20;103131.97;;;7.68;81.01
68871;BME280;55906;52.278;6.808;2023-02-11T01:53:49;103130.25;;;7.68;81.83
68871;BME280;55906;52.278;6.808;2023-02-11T01:56:34;103116.13;;;7.66;81.02
68871;BME280;55906;52.278;6.808;2023-02-11T01:59:24;103105.44;;;7.63;81.24
68871;BME280;55906;52.278;6.808;2023-02-11T02:01:56;103099.41;;;7.64;81.43
68871;BME280;55906;52.278;6.808;2023-02-11T02:04:26;103112.28;;;7.61;81.54
68871;BME280;55906;52.278;6.808;2023-02-11T02:07:00;103102.59;;;7.60;81.77
68871;BME280;55906;52.278;6.808;2023-02-11T02:09:32;103112.28;;;7.61;82.00
68871;BME280;55906;52.278;6.808;2023-02-11T02:12:02;103112.28;;;7.61;81.60
68871;BME280;55906;52.278;6.808;2023-02-11T02:14:28;103107.94;;;7.62;81.82
68871;BME280;55906;52.278;6.808;2023-02-11T02:16:55;103110.44;;;7.60;82.27
68871;BME280;55906;52.278;6.808;2023-02-11T02:19:40;103103.63;;;7.62;81.54
68871;BME280;55906;52.278;6.808;2023-02-11T02:22:44;103113.97;;;7.61;81.85
68871;BME280;55906;52.278;6.808;2023-02-11T02:25:42;103103.63;;;7.62;81.75
68871;BME280;55906;52.278;6.808;2023-02-11T02:28:35;103093.72;;;7.58;82.35
68871;BME280;55906;52.278;6.808;2023-02-11T02:31:32;103102.25;;;7.56;81.72
68871;BME280;55906;52.278;6.808;2023-02-11T02:34:07;103092.91;;;7.59;82.35
68871;BME280;55906;52.278;6.808;2023-02-11T02:36:38;103104.53;;;7.63;82.30
68871;BME280;55906;52.278;6.808;2023-02-11T02:39:11;103096.56;;;7.61;81.73
68871;BME280;55906;52.278;6.808;2023-02-11T02:41:40;103094.63;;;7.59;81.66
68871;BME280;55906;52.278;6.808;2023-02-11T02:44:07;103098.16;;;7.59;82.67
68871;BME280;55906;52.278;6.808;2023-02-11T02:46:35;103098.16;;;7.59;82.07
68871;BME280;55906;52.278;6.808;2023-02-11T02:49:02;103096.91;;;7.54;82.71
68871;BME280;55906;52.278;6.808;2023-02-11T02:51:57;103084.72;;;7.55;83.05
68871;BME280;55906;52.278;6.808;2023-02-11T02:57:31;103070.59;;;7.53;82.95
68871;BME280;55906;52.278;6.808;2023-02-11T03:00:10;103077.09;;;7.58;82.59
68871;BME280;55906;52.278;6.808;2023-02-11T03:02:48;103080.38;;;7.55;83.18
68871;BME280;55906;52.278;6.808;2023-02-11T03:05:21;103071.28;;;7.50;82.92
68871;BME280;55906;52.278;6.808;2023-02-11T03:07:57;103077.53;;;7.52;83.18
68871;BME280;55906;52.278;6.808;2023-02-11T03:10:28;103082.78;;;7.52;83.00
68871;BME280;55906;52.278;6.808;2023-02-11T03:12:56;103066.72;;;7.48;82.71
68871;BME280;55906;52.278;6.808;2023-02-11T03:15:25;103059.22;;;7.52;82.68
68871;BME280;55906;52.278;6.808;2023-02-11T03:17:54;103055.56;;;7.50;83.27
68871;BME280;55906;52.278;6.808;2023-02-11T03:20:22;103056.25;;;7.48;83.41
68871;BME280;55906;52.278;6.808;2023-02-11T03:22:53;103053.53;;;7.46;82.96
68871;BME280;55906;52.278;6.808;2023-02-11T03:25:27;103060.59;;;7.47;82.70
68871;BME280;55906;52.278;6.808;2023-02-11T03:28:01;103065.13;;;7.50;83.49
68871;BME280;55906;52.278;6.808;2023-02-11T03:30:32;103077.22;;;7.48;83.75
68871;BME280;55906;52.278;6.808;2023-02-11T03:33:06;103075.50;;;7.48;83.07
68871;BME280;55906;52.278;6.808;2023-02-11T03:35:38;103082.66;;;7.51;82.63
68871;BME280;55906;52.278;6.808;2023-02-11T03:38:12;103074.69;;;7.49;82.75
68871;BME280;55906;52.278;6.808;2023-02-11T03:40:42;103074.69;;;7.49;83.63
68871;BME280;55906;52.278;6.808;2023-02-11T03:43:15;103091.66;;;7.54;83.04
68871;BME280;55906;52.278;6.808;2023-02-11T03:45:44;103087.69;;;7.48;83.60
68871;BME280;55906;52.278;6.808;2023-02-11T03:48:15;103082.44;;;7.48;83.91
68871;BME280;55906;52.278;6.808;2023-02-11T03:50:45;103083.13;;;7.45;83.47
68871;BME280;55906;52.278;6.808;2023-02-11T03:53:15;103091.09;;;7.47;83.85
68871;BME280;55906;52.278;6.808;2023-02-11T03:55:43;103088.38;;;7.45;83.44
68871;BME280;55906;52.278;6.808;2023-02-11T03:58:11;103093.03;;;7.49;83.43
68871;BME280;55906;52.278;6.808;2023-02-11T04:00:40;103096.78;;;7.53;83.45
68871;BME280;55906;52.278;6.808;2023-02-11T04:03:08;103101.13;;;7.52;83.28
68871;BME280;55906;52.278;6.808;2023-02-11T04:05:35;103100.09;;;7.50;83.14
68871;BME280;55906;52.278;6.808;2023-02-11T04:08:03;103101.56;;;7.47;83.62
68871;BME280;55906;52.278;6.808;2023-02-11T04:10:31;103103.63;;;7.51;83.95
68871;BME280;55906;52.278;6.808;2023-02-11T04:12:58;103102.47;;;7.47;83.79
68871;BME280;55906;52.278;6.808;2023-02-11T04:15:24;103103.63;;;7.51;83.81
68871;BME280;55906;52.278;6.808;2023-02-11T04:17:51;103093.13;;;7.51;83.24
68871;BME280;55906;52.278;6.808;2023-02-11T04:20:18;103089.16;;;7.44;84.07
68871;BME280;55906;52.278;6.808;2023-02-11T04:22:45;103094.28;;;7.43;83.95
68871;BME280;55906;52.278;6.808;2023-02-11T04:25:11;103100.66;;;7.46;84.38
68871;BME280;55906;52.278;6.808;2023-02-11T04:27:39;103091.78;;;7.44;83.97
68871;BME280;55906;52.278;6.808;2023-02-11T04:30:09;103094.75;;;7.49;83.70
68871;BME280;55906;52.278;6.808;2023-02-11T04:32:36;103089.03;;;7.43;84.27
68871;BME280;55906;52.278;6.808;2023-02-11T04:35:02;103097.00;;;7.44;84.43
68871;BME280;55906;52.278;6.808;2023-02-11T04:37:29;103084.25;;;7.37;84.30
68871;BME280;55906;52.278;6.808;2023-02-11T04:39:56;103097.94;;;7.45;84.08
68871;BME280;55906;52.278;6.808;2023-02-11T04:42:22;103097.94;;;7.45;83.85
68871;BME280;55906;52.278;6.808;2023-02-11T04:44:50;103105.66;;;7.43;84.21
68871;BME280;55906;52.278;6.808;2023-02-11T04:47:17;103109.31;;;7.45;83.60
68871;BME280;55906;52.278;6.808;2023-02-11T04:49:44;103105.00;;;7.46;83.34
68871;BME280;55906;52.278;6.808;2023-02-11T04:52:11;103098.16;;;7.48;83.41
68871;BME280;55906;52.278;6.808;2023-02-11T04:54:37;103098.59;;;7.42;84.13
68871;BME280;55906;52.278;6.808;2023-02-11T04:57:04;103103.06;;;7.43;83.81
68871;BME280;55906;52.278;6.808;2023-02-11T04:59:31;103093.25;;;7.41;83.89
68871;BME280;55906;52.278;6.808;2023-02-11T05:01:59;103088.59;;;7.36;84.25
68871;BME280;55906;52.278;6.808;2023-02-11T05:04:26;103086.88;;;7.37;83.76
68871;BME280;55906;52.278;6.808;2023-02-11T05:06:52;103101.56;;;7.35;84.61
68871;BME280;55906;52.278;6.808;2023-02-11T05:09:19;103111.47;;;7.39;84.41
68871;BME280;55906;52.278;6.808;2023-02-11T05:11:46;103103.50;;;7.37;84.07
68871;BME280;55906;52.278;6.808;2023-02-11T05:14:12;103110.34;;;7.35;85.02
68871;BME280;55906;52.278;6.808;2023-02-11T05:16:39;103096.34;;;7.35;84.61
68871;BME280;55906;52.278;6.808;2023-02-11T05:19:07;103094.50;;;7.34;84.84
68871;BME280;55906;52.278;6.808;2023-02-11T05:21:33;103102.59;;;7.37;84.45
68871;BME280;55906;52.278;6.808;2023-02-11T05:24:00;103094.84;;;7.38;84.00
68871;BME280;55906;52.278;6.808;2023-02-11T05:26:27;103107.03;;;7.38;84.99
68871;BME280;55906;52.278;6.808;2023-02-11T05:28:53;103107.72;;;7.35;84.94
68871;BME280;55906;52.278;6.808;2023-02-11T05:31:20;103103.63;;;7.39;85.26
68871;BME280;55906;52.278;6.808;2023-02-11T05:33:47;103102.59;;;7.37;85.07
68871;BME280;55906;52.278;6.808;2023-02-11T05:36:15;103102.72;;;7.38;84.56
68871;BME280;55906;52.278;6.808;2023-02-11T05:38:42;103096.34;;;7.35;85.23
68871;BME280;55906;52.278;6.808;2023-02-11T05:41:09;103095.41;;;7.34;85.34
68871;BME280;55906;52.278;6.808;2023-02-11T05:43:36;103101.56;;;7.35;84.88
68871;BME280;55906;52.278;6.808;2023-02-11T05:46:03;103094.28;;;7.31;85.52
68871;BME280;55906;52.278;6.808;2023-02-11T05:48:30;103090.88;;;7.32;85.17
68871;BME280;55906;52.278;6.808;2023-02-11T05:50:57;103086.53;;;7.32;84.98
68871;BME280;55906;52.278;6.808;2023-02-11T05:53:25;103100.66;;;7.34;85.88
68871;BME280;55906;52.278;6.808;2023-02-11T05:55:52;103089.03;;;7.31;85.34
68871;BME280;55906;52.278;6.808;2023-02-11T05:58:19;103091.66;;;7.31;85.23
68871;BME280;55906;52.278;6.808;2023-02-11T06:00:45;103098.84;;;7.33;85.26
68871;BME280;55906;52.278;6.808;2023-02-11T06:03:12;103100.31;;;7.30;86.04
68871;BME280;55906;52.278;6.808;2023-02-11T06:05:38;103095.31;;;7.33;85.61
68871;BME280;55906;52.278;6.808;2023-02-11T06:08:05;103095.19;;;7.31;85.94
68871;BME280;55906;52.278;6.808;2023-02-11T06:10:33;103099.28;;;7.28;85.99
68871;BME280;55906;52.278;6.808;2023-02-11T06:13:00;103098.94;;;7.35;85.79
68871;BME280;55906;52.278;6.808;2023-02-11T06:15:27;103092.91;;;7.36;85.68
68871;BME280;55906;52.278;6.808;2023-02-11T06:17:54;103095.41;;;7.34;85.95
68871;BME280;55906;52.278;6.808;2023-02-11T06:20:20;103107.59;;;7.34;85.96
68871;BME280;55906;52.278;6.808;2023-02-11T06:22:47;103093.59;;;7.33;86.28
68871;BME280;55906;52.278;6.808;2023-02-11T06:25:13;103100.78;;;7.36;86.55
68871;BME280;55906;52.278;6.808;2023-02-11T06:27:41;103101.78;;;7.38;85.60
68871;BME280;55906;52.278;6.808;2023-02-11T06:30:09;103106.25;;;7.39;86.54
68871;BME280;55906;52.278;6.808;2023-02-11T06:32:36;103099.28;;;7.39;85.69
68871;BME280;55906;52.278;6.808;2023-02-11T06:35:03;103108.06;;;7.40;86.53
68871;BME280;55906;52.278;6.808;2023-02-11T06:37:29;103107.03;;;7.38;86.82
68871;BME280;55906;52.278;6.808;2023-02-11T06:39:56;103103.84;;;7.42;85.96
68871;BME280;55906;52.278;6.808;2023-02-11T06:42:23;103112.72;;;7.44;85.78
68871;BME280;55906;52.278;6.808;2023-02-11T06:44:51;103111.81;;;7.44;86.76
68871;BME280;55906;52.278;6.808;2023-02-11T06:47:17;103107.50;;;7.44;86.57
68871;BME280;55906;52.278;6.808;2023-02-11T06:49:44;103109.09;;;7.42;86.38
68871;BME280;55906;52.278;6.808;2023-02-11T06:52:11;103105.66;;;7.43;86.87
68871;BME280;55906;52.278;6.808;2023-02-11T06:54:37;103103.06;;;7.43;87.21
68871;BME280;55906;52.278;6.808;2023-02-11T06:57:04;103104.06;;;7.45;86.92
68871;BME280;55906;52.278;6.808;2023-02-11T06:59:31;103096.00;;;7.42;87.66
68871;BME280;55906;52.278;6.808;2023-02-11T07:01:59;103109.88;;;7.41;87.19
68871;BME280;55906;52.278;6.808;2023-02-11T07:04:26;103105.44;;;7.40;87.47
68871;BME280;55906;52.278;6.808;2023-02-11T07:06:52;103103.16;;;7.45;87.30
68871;BME280;55906;52.278;6.808;2023-02-11T07:09:19;103098.84;;;7.45;87.28
68871;BME280;55906;52.278;6.808;2023-02-11T07:11:45;103101.56;;;7.47;87.58
68871;BME280;55906;52.278;6.808;2023-02-11T07:14:12;103100.66;;;7.46;88.10
68871;BME280;55906;52.278;6.808;2023-02-11T07:16:39;103097.94;;;7.45;87.76
68871;BME280;55906;52.278;6.808;2023-02-11T07:19:07;103096.56;;;7.50;87.51
68871;BME280;55906;52.278;6.808;2023-02-11T07:21:33;103095.31;;;7.45;87.90
68871;BME280;55906;52.278;6.808;2023-02-11T07:24:00;103088.59;;;7.48;88.06
68871;BME280;55906;52.278;6.808;2023-02-11T07:26:27;103098.59;;;7.54;88.14
68871;BME280;55906;52.278;6.808;2023-02-11T07:28:54;103099.63;;;7.56;88.08
68871;BME280;55906;52.278;6.808;2023-02-11T07:31:23;103096.00;;;7.54;87.37
68871;BME280;55906;52.278;6.808;2023-02-11T07:33:51;103099.63;;;7.56;88.28
68871;BME280;55906;52.278;6.808;2023-02-11T07:36:20;103108.41;;;7.56;87.18
68871;BME280;55906;52.278;6.808;2023-02-11T07:38:47;103110.34;;;7.59;87.25
68871;BME280;55906;52.278;6.808;2023-02-11T07:41:15;103125.25;;;7.60;88.00
68871;BME280;55906;52.278;6.808;2023-02-11T07:43:42;103133.44;;;7.64;87.87
68871;BME280;55906;52.278;6.808;2023-02-11T07:46:10;103128.44;;;7.67;87.83
68871;BME280;55906;52.278;6.808;2023-02-11T07:48:38;103124.69;;;7.64;87.77
68871;BME280;55906;52.278;6.808;2023-02-11T07:51:07;103118.06;;;7.69;87.81
68871;BME280;55906;52.278;6.808;2023-02-11T07:53:35;103115.91;;;7.63;87.65
68871;BME280;55906;52.278;6.808;2023-02-11T07:56:02;103114.31;;;7.65;88.15
68871;BME280;55906;52.278;6.808;2023-02-11T07:58:29;103116.03;;;7.65;88.35
68871;BME280;55906;52.278;6.808;2023-02-11T08:00:59;103118.31;;;7.60;87.78
68871;BME280;55906;52.278;6.808;2023-02-11T08:03:26;103138.22;;;7.70;88.48
68871;BME280;55906;52.278;6.808;2023-02-11T08:05:53;103135.72;;;7.71;87.61
68871;BME280;55906;52.278;6.808;2023-02-11T08:08:19;103135.50;;;7.68;88.21
68871;BME280;55906;52.278;6.808;2023-02-11T08:10:47;103133.44;;;7.76;87.44
68871;BME280;55906;52.278;6.808;2023-02-11T08:13:14;103142.09;;;7.75;87.70
68871;BME280;55906;52.278;6.808;2023-02-11T08:15:41;103139.59;;;7.77;87.44
68871;BME280;55906;52.278;6.808;2023-02-11T08:18:07;103149.38;;;7.79;87.31
68871;BME280;55906;52.278;6.808;2023-02-11T08:20:34;103141.91;;;7.84;87.33
68871;BME280;55906;52.278;6.808;2023-02-11T08:23:00;103151.69;;;7.86;87.56
68871;BME280;55906;52.278;6.808;2023-02-11T08:25:27;103149.38;;;7.79;87.91
68871;BME280;55906;52.278;6.808;2023-02-11T08:27:55;103146.13;;;7.82;87.96
68871;BME280;55906;52.278;6.808;2023-02-11T08:30:22;103151.69;;;7.86;87.45
68871;BME280;55906;52.278;6.808;2023-02-11T08:32:49;103144.53;;;7.84;88.02
68871;BME280;55906;52.278;6.808;2023-02-11T08:35:16;103144.53;;;7.84;87.70
68871;BME280;55906;52.278;6.808;2023-02-11T08:37:43;103161.03;;;7.94;87.25
68871;BME280;55906;52.278;6.808;2023-02-11T08:40:10;103151.47;;;7.95;87.72
68871;BME280;55906;52.278;6.808;2023-02-11T08:42:36;103166.97;;;7.92;88.04
68871;BME280;55906;52.278;6.808;2023-02-11T08:45:06;103157.28;;;7.91;87.66
68871;BME280;55906;52.278;6.808;2023-02-11T08:47:32;103162.16;;;7.98;87.78
68871;BME280;55906;52.278;6.808;2023-02-11T08:49:59;103156.25;;;8.00;87.84
68871;BME280;55906;52.278;6.808;2023-02-11T08:52:26;103164.31;;;8.03;87.39
68871;BME280;55906;52.278;6.808;2023-02-11T08:54:52;103162.84;;;8.07;87.60
68871;BME280;55906;52.278;6.808;2023-02-11T08:57:19;103176.63;;;8.16;86.94
68871;BME280;55906;52.278;6.808;2023-02-11T08:59:45;103168.16;;;8.20;87.37
68871;BME280;55906;52.278;6.808;2023-02-11T09:02:14;103165.78;;;8.23;86.88
68871;BME280;55906;52.278;6.808;2023-02-11T09:04:40;103178.19;;;8.26;86.71
68871;BME280;55906;52.278;6.808;2023-02-11T09:07:07;103185.59;;;8.31;86.42
68871;BME280;55906;52.278;6.808;2023-02-11T09:09:34;103183.56;;;8.39;86.82
68871;BME280;55906;52.278;6.808;2023-02-11T09:12:01;103171.25;;;8.38;86.53
68871;BME280;55906;52.278;6.808;2023-02-11T09:14:27;103187.41;;;8.44;85.98
68871;BME280;55906;52.278;6.808;2023-02-11T09:16:54;103186.84;;;8.48;85.90
68871;BME280;55906;52.278;6.808;2023-02-11T09:19:23;103187.28;;;8.54;86.13
68871;BME280;55906;52.278;6.808;2023-02-11T09:21:49;103184.88;;;8.57;85.78
68871;BME280;55906;52.278;6.808;2023-02-11T09:24:16;103188.97;;;8.54;86.03
68871;BME280;55906;52.278;6.808;2023-02-11T09:26:43;103201.53;;;8.58;85.99
68871;BME280;55906;52.278;6.808;2023-02-11T09:29:10;103207.41;;;8.67;85.51
68871;BME280;55906;52.278;6.808;2023-02-11T09:31:37;103198.75;;;8.68;85.21
68871;BME280;55906;52.278;6.808;2023-02-11T09:34:04;103209.09;;;8.78;85.33
68871;BME280;55906;52.278;6.808;2023-02-11T09:36:34;103218.78;;;8.79;85.27
68871;BME280;55906;52.278;6.808;2023-02-11T09:39:04;103227.47;;;8.78;85.29
68871;BME280;55906;52.278;6.808;2023-02-11T09:44:31;103234.06;;;8.85;84.85
68871;BME280;55906;52.278;6.808;2023-02-11T09:47:01;103236.69;;;8.85;84.73
68871;BME280;55906;52.278;6.808;2023-02-11T09:49:34;103224.94;;;8.80;84.89
68871;BME280;55906;52.278;6.808;2023-02-11T09:52:07;103240.31;;;8.87;84.88
68871;BME280;55906;52.278;6.808;2023-02-11T09:54:44;103238.25;;;8.94;84.71
68871;BME280;55906;52.278;6.808;2023-02-11T09:57:13;103246.13;;;8.94;84.67
68871;BME280;55906;52.278;6.808;2023-02-11T09:59:41;103244.28;;;8.93;85.12
68871;BME280;55906;52.278;6.808;2023-02-11T10:02:11;103249.38;;;9.04;84.58
68871;BME280;55906;52.278;6.808;2023-02-11T10:04:51;103248.00;;;9.09;84.28
68871;BME280;55906;52.278;6.808;2023-02-11T10:07:30;103241.94;;;9.10;84.08
68871;BME280;55906;52.278;6.808;2023-02-11T10:10:09;103257.94;;;9.13;84.03
68871;BME280;55906;52.278;6.808;2023-02-11T10:12:51;103270.13;;;9.24;83.84
68871;BME280;55906;52.278;6.808;2023-02-11T10:15:30;103263.16;;;9.24;83.80
68871;BME280;55906;52.278;6.808;2023-02-11T10:18:18;103270.44;;;9.28;83.47
68871;BME280;55906;52.278;6.808;2023-02-11T10:21:04;103281.84;;;9.29;83.86
68871;BME280;55906;52.278;6.808;2023-02-11T10:23:37;103280.25;;;9.31;83.38
68871;BME280;55906;52.278;6.808;2023-02-11T10:26:11;103289.34;;;9.36;83.58
68871;BME280;55906;52.278;6.808;2023-02-11T10:28:39;103281.78;;;9.41;82.92
68871;BME280;55906;52.278;6.808;2023-02-11T10:31:09;103280.28;;;9.44;83.33
68871;BME280;55906;52.278;6.808;2023-02-11T10:33:42;103289.00;;;9.56;82.40
68871;BME280;55906;52.278;6.808;2023-02-11T10:36:12;103286.78;;;9.49;82.66
68871;BME280;55906;52.278;6.808;2023-02-11T10:38:41;103286.59;;;9.59;82.43
68871;BME280;55906;52.278;6.808;2023-02-11T10:41:09;103289.00;;;9.56;82.50
68871;BME280;55906;52.278;6.808;2023-02-11T10:43:40;103284.88;;;9.60;82.28
68871;BME280;55906;52.278;6.808;2023-02-11T10:46:15;103283.59;;;9.67;81.98
68871;BME280;55906;52.278;6.808;2023-02-11T10:48:44;103293.28;;;9.68;82.24
68871;BME280;55906;52.278;6.808;2023-02-11T10:51:19;103287.53;;;9.73;81.93
68871;BME280;55906;52.278;6.808;2023-02-11T10:53:48;103279.75;;;9.75;81.76
68871;BME280;55906;52.278;6.808;2023-02-11T10:56:21;103271.78;;;9.73;81.73
68871;BME280;55906;52.278;6.808;2023-02-11T10:58:58;103277.97;;;9.87;81.00
68871;BME280;55906;52.278;6.808;2023-02-11T11:01:42;103288.69;;;10.03;80.82
68871;BME280;55906;52.278;6.808;2023-02-11T11:04:33;103280.09;;;10.06;80.45
68871;BME280;55906;52.278;6.808;2023-02-11T11:07:13;103274.97;;;10.20;79.93
68871;BME280;55906;52.278;6.808;2023-02-11T11:09:48;103277.09;;;10.26;79.98
68871;BME280;55906;52.278;6.808;2023-02-11T11:12:26;103271.34;;;10.32;79.42
68871;BME280;55906;52.278;6.808;2023-02-11T11:14:55;103277.72;;;10.35;79.72
68871;BME280;55906;52.278;6.808;2023-02-11T11:17:22;103279.34;;;10.33;79.35
68871;BME280;55906;52.278;6.808;2023-02-11T11:19:50;103280.44;;;10.37;79.67
68871;BME280;55906;52.278;6.808;2023-02-11T11:22:20;103293.31;;;10.45;79.02
68871;BME280;55906;52.278;6.808;2023-02-11T11:24:49;103296.75;;;10.44;79.01
68871;BME280;55906;52.278;6.808;2023-02-11T11:27:22;103293.81;;;10.53;78.81
68871;BME280;55906;52.278;6.808;2023-02-11T11:29:51;103290.69;;;10.45;79.25
68871;BME280;55906;52.278;6.808;2023-02-11T11:32:21;103282.69;;;10.44;78.84
68871;BME280;55906;52.278;6.808;2023-02-11T11:34:51;103278.81;;;10.39;79.20
68871;BME280;55906;52.278;6.808;2023-02-11T11:37:23;103286.13;;;10.43;79.36
68871;BME280;55906;52.278;6.808;2023-02-11T11:39:56;103286.44;;;10.47;78.61
68871;BME280;55906;52.278;6.808;2023-02-11T11:42:25;103293.09;;;10.55;78.84
68871;BME280;55906;52.278;6.808;2023-02-11T11:44:58;103286.13;;;10.56;78.38
68871;BME280;55906;52.278;6.808;2023-02-11T11:47:30;103292.78;;;10.64;78.60
68871;BME280;55906;52.278;6.808;2023-02-11T11:50:20;103289.44;;;10.67;77.82
68871;BME280;55906;52.278;6.808;2023-02-11T11:52:55;103290.47;;;10.69;78.27
68871;BME280;55906;52.278;6.808;2023-02-11T11:55:25;103288.34;;;10.63;78.08
68871;BME280;55906;52.278;6.808;2023-02-11T11:57:52;103290.06;;;10.63;78.38
68871;BME280;55906;52.278;6.808;2023-02-11T12:00:20;103291.38;;;10.69;78.43
68871;BME280;55906;52.278;6.808;2023-02-11T12:03:33;103285.69;;;10.76;77.99
68871;BME280;55906;52.278;6.808;2023-02-11T12:06:21;103279.81;;;10.80;77.94
68871;BME280;55906;52.278;6.808;2023-02-11T12:08:59;103286.38;;;10.87;77.33
68871;BME280;55906;52.278;6.808;2023-02-11T12:11:35;103291.34;;;10.82;77.80
68871;BME280;55906;52.278;6.808;2023-02-11T12:14:11;103282.09;;;10.89;77.47
68871;BME280;55906;52.278;6.808;2023-02-11T12:16:52;103272.06;;;10.97;77.00
68871;BME280;55906;52.278;6.808;2023-02-11T12:19:43;103273.63;;;11.08;77.33
68871;BME280;55906;52.278;6.808;2023-02-11T12:22:24;103259.75;;;11.10;76.43
68871;BME280;55906;52.278;6.808;2023-02-11T12:25:07;103266.69;;;11.23;76.61
68871;BME280;55906;52.278;6.808;2023-02-11T12:27:46;103264.72;;;11.34;76.10
68871;BME280;55906;52.278;6.808;2023-02-11T12:30:34;103274.19;;;11.45;75.76
68871;BME280;55906;52.278;6.808;2023-02-11T12:33:10;103266.75;;;11.52;75.25
68871;BME280;55906;52.278;6.808;2023-02-11T12:35:50;103265.34;;;11.72;74.72
68871;BME280;55906;52.278;6.808;2023-02-11T12:38:44;103274.00;;;11.84;74.03
68871;BME280;55906;52.278;6.808;2023-02-11T12:41:34;103264.19;;;11.97;74.18
68871;BME280;55906;52.278;6.808;2023-02-11T12:44:36;103267.25;;;12.04;73.10
68871;BME280;55906;52.278;6.808;2023-02-11T12:47:16;103269.44;;;12.11;72.55
68871;BME280;55906;52.278;6.808;2023-02-11T12:49:56;103261.88;;;12.17;71.74
68871;BME280;55906;52.278;6.808;2023-02-11T12:52:37;103261.41;;;12.25;71.89
68871;BME280;55906;52.278;6.808;2023-02-11T12:55:17;103265.78;;;12.24;71.20
68871;BME280;55906;52.278;6.808;2023-02-11T12:57:46;103266.59;;;12.23;70.75
68871;BME280;55906;52.278;6.808;2023-02-11T13:00:20;103265.22;;;12.30;70.63
68871;BME280;55906;52.278;6.808;2023-02-11T13:02:54;103270.41;;;12.28;70.26
68871;BME280;55906;52.278;6.808;2023-02-11T13:05:26;103284.34;;;12.26;70.94
68871;BME280;55906;52.278;6.808;2023-02-11T13:07:59;103272.97;;;12.27;70.42
68871;BME280;55906;52.278;6.808;2023-02-11T13:10:31;103272.44;;;12.17;70.50
68871;BME280;55906;52.278;6.808;2023-02-11T13:13:01;103271.44;;;12.15;70.66
68871;BME280;55906;52.278;6.808;2023-02-11T13:15:48;103256.03;;;12.23;70.76
68871;BME280;55906;52.278;6.808;2023-02-11T13:18:28;103257.41;;;12.31;70.25
68871;BME280;55906;52.278;6.808;2023-02-11T13:21:02;103246.00;;;12.32;69.78